KFPK

Fitch H Beach Airport

Charlotte, Michigan, USA
METAR KFPK 190315Z AUTO 22007KT 10SM CLR M03/M08 A2993 RMK AO2 T10331085
Observed Flight Rules
Jan-19 @ 03:15 UTC (23 minutes ago) Visual Flight Rules
Wind Visibility Clouds
220° at 7 knots 10 miles
  • Clear skies
Temperatures Readings
Current -3°C / 27°F
Dewpoint -9°C / 16°F
Humidity 64%
Altimeter 29.93" Hg
Pressure 1014 hPa
Elevation 272
METAR KFPK 190315Z AUTO 22007KT 10SM CLR M03/M08 A2993 RMK AO2 T10331085
Observed Flight Rules
Jan-19 @ 03:15 UTC
(23 minutes ago)
VFR
Wind Visibility
220° at 7 knots 10 miles
Clouds
  • Clear skies
Temperature Dewpoint
-3°C / 27°F -9°C / 16°F
Humidity Altimeter Pressure
64% 29.93" Hg 1014 hPa